createdAt,value
2016-03-27T00:00:56.939Z,55.43
2016-03-27T00:01:56.925Z,55.34
2016-03-27T00:02:56.897Z,55.53
2016-03-27T00:03:56.869Z,55.34
2016-03-27T00:04:56.856Z,55.43
2016-03-27T00:05:56.827Z,55.43
2016-03-27T00:06:56.799Z,55.24
2016-03-27T00:07:56.786Z,55.34
2016-03-27T00:08:56.758Z,55.34
2016-03-27T00:09:56.744Z,55.05
2016-03-27T00:10:56.716Z,55.05
2016-03-27T00:11:56.688Z,55.34
2016-03-27T00:12:56.674Z,55.43
2016-03-27T00:13:56.646Z,55.43
2016-03-27T00:14:56.632Z,55.43
2016-03-27T00:15:56.604Z,55.62
2016-03-27T00:16:56.575Z,55.43
2016-03-27T00:17:56.557Z,55.43
2016-03-27T00:18:56.514Z,55.53
2016-03-27T00:19:56.471Z,55.43
2016-03-27T00:20:56.489Z,55.53
2016-03-27T00:21:56.399Z,55.53
2016-03-27T00:22:56.374Z,55.24
2016-03-27T00:23:56.340Z,55.34
2016-03-27T00:24:56.307Z,55.53
2016-03-27T00:25:56.288Z,55.43
2016-03-27T00:26:56.254Z,55.43
2016-03-27T00:27:56.237Z,55.62
2016-03-27T00:28:56.206Z,55.62
2016-03-27T00:29:56.191Z,55.53
2016-03-27T00:30:56.160Z,54.77
2016-03-27T00:31:56.130Z,54.96
2016-03-27T00:32:56.099Z,54.48
2016-03-27T00:33:56.085Z,54.67
2016-03-27T00:34:56.056Z,54.48
2016-03-27T00:35:56.042Z,54.67
2016-03-27T00:36:56.012Z,54.48
2016-03-27T00:37:55.999Z,54.48
2016-03-27T00:38:55.971Z,54.67
2016-03-27T00:39:55.943Z,54.57
2016-03-27T00:40:55.929Z,54.5
2016-03-27T00:41:55.901Z,54.29
2016-03-27T00:42:55.903Z,53.74
2016-03-27T00:43:55.860Z,53.62
2016-03-27T00:44:55.831Z,53.72
2016-03-27T00:45:55.817Z,53.74
2016-03-27T00:46:55.789Z,53.93
2016-03-27T00:47:55.776Z,54.03
2016-03-27T00:48:55.748Z,54.13
2016-03-27T00:49:55.719Z,53.93
2016-03-27T00:50:55.706Z,53.84
2016-03-27T00:51:55.678Z,53.84
2016-03-27T00:52:55.650Z,53.65
2016-03-27T00:53:55.636Z,53.55
2016-03-27T00:54:55.607Z,53.27
2016-03-27T00:55:55.595Z,52.98
2016-03-27T00:56:55.566Z,52.98
2016-03-27T00:57:55.538Z,52.69
2016-03-27T00:58:55.525Z,52.79
2016-03-27T00:59:55.496Z,52.79
2016-03-27T01:00:55.483Z,53.08
2016-03-27T01:01:55.455Z,53.17
2016-03-27T01:02:55.441Z,53.08
2016-03-27T01:03:55.413Z,52.69
2016-03-27T01:04:55.385Z,52.69
2016-03-27T01:05:55.371Z,52.79
2016-03-27T01:06:55.344Z,52.79
2016-03-27T01:07:55.318Z,52.5
2016-03-27T01:08:55.305Z,52.59
2016-03-27T01:09:55.277Z,52.98
2016-03-27T01:10:55.264Z,52.5
2016-03-27T01:11:55.235Z,52.5
2016-03-27T01:12:55.207Z,51.93
2016-03-27T01:13:55.194Z,52.22
2016-03-27T01:14:55.180Z,51.74
2016-03-27T01:15:55.153Z,51.35
2016-03-27T01:16:55.124Z,51.64
2016-03-27T01:17:55.094Z,51.38
2016-03-27T01:18:55.083Z,51.29
2016-03-27T01:19:55.054Z,51.38
2016-03-27T01:20:55.041Z,50.81
2016-03-27T01:21:55.013Z,50.9
2016-03-27T01:22:54.999Z,50.62
2016-03-27T01:23:54.971Z,50.81
2016-03-27T01:24:54.958Z,51.09
2016-03-27T01:25:54.929Z,50.62
2016-03-27T01:26:54.915Z,50.33
2016-03-27T01:27:54.888Z,50.71
2016-03-27T01:28:54.859Z,51
2016-03-27T01:29:54.846Z,50.43
2016-03-27T01:30:54.818Z,50.33
2016-03-27T01:31:54.804Z,50.43
2016-03-27T01:32:54.776Z,50.62
2016-03-27T01:33:54.763Z,49.76
2016-03-27T01:34:54.734Z,50.04
2016-03-27T01:35:54.722Z,50.14
2016-03-27T01:36:54.693Z,49.85
2016-03-27T01:37:54.680Z,49.85
2016-03-27T01:38:54.651Z,50.24
2016-03-27T01:39:54.623Z,49.95
2016-03-27T01:40:54.611Z,49.85
2016-03-27T01:41:54.582Z,49.85
2016-03-27T01:42:54.569Z,49.76
2016-03-27T01:43:54.539Z,49.88
2016-03-27T01:44:54.527Z,49.66
2016-03-27T01:45:54.514Z,49.76
2016-03-27T01:46:54.486Z,49.28
2016-03-27T01:47:54.457Z,48.83
2016-03-27T01:48:54.444Z,48.83
2016-03-27T01:49:54.416Z,49.02
2016-03-27T01:50:54.403Z,49.02
2016-03-27T01:51:54.374Z,49.11
2016-03-27T01:52:54.361Z,48.83
2016-03-27T01:53:54.333Z,49.11
2016-03-27T01:54:54.304Z,49.02
2016-03-27T01:55:54.291Z,48.93
2016-03-27T01:56:54.263Z,48.93
2016-03-27T01:57:54.249Z,48.73
2016-03-27T01:58:54.237Z,48.93
2016-03-27T01:59:54.208Z,49.11
2016-03-27T02:00:54.195Z,49.02
2016-03-27T02:01:54.323Z,49.02
2016-03-27T02:02:54.138Z,49.3
2016-03-27T02:03:54.125Z,48.93
2016-03-27T02:04:54.097Z,48.93
2016-03-27T02:05:54.084Z,49.76
2016-03-27T02:06:54.079Z,48.99
2016-03-27T02:07:54.069Z,49.47
2016-03-27T02:08:54.021Z,49.95
2016-03-27T02:09:54.055Z,49.85
2016-03-27T02:10:54.272Z,49.76
2016-03-27T02:11:53.946Z,49.28
2016-03-27T02:12:53.933Z,50.14
2016-03-27T02:13:53.921Z,50.14
2016-03-27T02:14:53.892Z,49.95
2016-03-27T02:15:53.863Z,50.04
2016-03-27T02:16:53.850Z,49.95
2016-03-27T02:17:53.822Z,49.85
2016-03-27T02:18:53.809Z,50.14
2016-03-27T02:19:53.781Z,49.95
2016-03-27T02:20:53.767Z,49.85
2016-03-27T02:21:53.739Z,50.04
2016-03-27T02:22:53.711Z,50.43
2016-03-27T02:23:53.697Z,50.52
2016-03-27T02:24:53.668Z,50.24
2016-03-27T02:25:53.655Z,50.52
2016-03-27T02:26:53.627Z,50.62
2016-03-27T02:27:53.614Z,50.71
2016-03-27T02:28:53.586Z,50.52
2016-03-27T02:29:53.557Z,50.43
2016-03-27T02:30:53.544Z,51.19
2016-03-27T02:31:53.610Z,50.81
2016-03-27T02:32:53.502Z,50.9
2016-03-27T02:33:53.474Z,50.49
2016-03-27T02:34:53.461Z,50.49
2016-03-27T02:35:53.433Z,50.81
2016-03-27T02:36:53.420Z,50.69
2016-03-27T02:37:53.391Z,50.69
2016-03-27T02:38:53.379Z,50.49
2016-03-27T02:39:53.350Z,50.98
2016-03-27T02:40:53.321Z,50.88
2016-03-27T02:41:53.309Z,51.07
2016-03-27T02:42:53.279Z,51.45
2016-03-27T02:43:53.267Z,51.35
2016-03-27T02:44:53.238Z,51.17
2016-03-27T02:45:53.225Z,51.26
2016-03-27T02:46:53.244Z,51.26
2016-03-27T02:47:53.168Z,51.26
2016-03-27T02:48:53.155Z,51.26
2016-03-27T02:49:53.127Z,51.26
2016-03-27T02:50:53.114Z,51.26
2016-03-27T02:51:53.085Z,51.17
2016-03-27T02:52:53.072Z,51.17
2016-03-27T02:53:53.044Z,51.35
2016-03-27T02:54:53.015Z,51.45
2016-03-27T02:55:53.002Z,51.45
2016-03-27T02:56:52.974Z,51.35
2016-03-27T02:57:52.960Z,51.54
2016-03-27T02:58:52.933Z,51.35
2016-03-27T02:59:52.919Z,51.45
2016-03-27T03:00:52.890Z,51.64
2016-03-27T03:01:52.878Z,51.83
2016-03-27T03:02:52.849Z,52.12
2016-03-27T03:03:52.821Z,52.03
2016-03-27T03:04:52.808Z,51.83
2016-03-27T03:05:52.779Z,52.22
2016-03-27T03:06:52.766Z,52.12
2016-03-27T03:07:52.738Z,52.22
2016-03-27T03:08:52.724Z,51.93
2016-03-27T03:09:52.695Z,51.93
2016-03-27T03:10:52.668Z,51.45
2016-03-27T03:11:52.654Z,51.45
2016-03-27T03:12:52.626Z,51.35
2016-03-27T03:13:52.613Z,51.45
2016-03-27T03:14:52.584Z,51.64
2016-03-27T03:15:52.556Z,51.54
2016-03-27T03:16:52.543Z,51.54
2016-03-27T03:17:52.514Z,51.45
2016-03-27T03:18:52.501Z,51.35
2016-03-27T03:19:52.473Z,51.17
2016-03-27T03:20:52.460Z,51.35
2016-03-27T03:21:52.432Z,50.98
2016-03-27T03:22:52.419Z,51.38
2016-03-27T03:23:52.389Z,51.64
2016-03-27T03:24:52.378Z,50.98
2016-03-27T03:25:52.349Z,50.88
2016-03-27T03:26:52.320Z,50.81
2016-03-27T03:27:52.307Z,50.9
2016-03-27T03:28:52.278Z,50.98
2016-03-27T03:29:52.249Z,50.71
2016-03-27T03:30:52.238Z,50.9
2016-03-27T03:31:52.224Z,50.81
2016-03-27T03:32:52.195Z,50.62
2016-03-27T03:33:52.167Z,50.59
2016-03-27T03:34:52.154Z,50.69
2016-03-27T03:35:52.125Z,50.71
2016-03-27T03:36:52.113Z,50.71
2016-03-27T03:37:52.099Z,50.71
2016-03-27T03:38:52.071Z,50.71
2016-03-27T03:39:52.043Z,50.62
2016-03-27T03:40:52.014Z,50.71
2016-03-27T03:41:52.001Z,50.59
2016-03-27T03:42:51.973Z,50.4
2016-03-27T03:43:51.959Z,50.81
2016-03-27T03:44:51.931Z,50.49
2016-03-27T03:45:51.918Z,50.71
2016-03-27T03:46:51.889Z,51.19
2016-03-27T03:47:51.876Z,50.81
2016-03-27T03:48:51.848Z,50.62
2016-03-27T03:49:51.819Z,50.52
2016-03-27T03:50:51.806Z,50.43
2016-03-27T03:51:51.778Z,51.19
2016-03-27T03:52:51.764Z,51.09
2016-03-27T03:53:51.736Z,50.81
2016-03-27T03:54:51.723Z,50.52
2016-03-27T03:55:51.694Z,50.71
2016-03-27T03:56:51.683Z,51.09
2016-03-27T03:57:51.653Z,50.62
2016-03-27T03:58:51.625Z,50.33
2016-03-27T03:59:51.611Z,50.52
2016-03-27T04:00:51.583Z,50.33
2016-03-27T04:01:51.571Z,50.52
2016-03-27T04:02:51.541Z,50.71
2016-03-27T04:03:51.529Z,50.14
2016-03-27T04:04:51.500Z,50.24
2016-03-27T04:05:51.488Z,50.04
2016-03-27T04:06:51.474Z,49.85
2016-03-27T04:07:51.448Z,50.14
2016-03-27T04:08:51.419Z,50.14
2016-03-27T04:09:51.406Z,49.95
2016-03-27T04:10:51.378Z,49.85
2016-03-27T04:11:51.364Z,49.85
2016-03-27T04:12:51.336Z,49.66
2016-03-27T04:13:51.323Z,50.04
2016-03-27T04:14:51.295Z,49.95
2016-03-27T04:15:51.266Z,50.14
2016-03-27T04:16:51.253Z,49.38
2016-03-27T04:17:51.225Z,49.85
2016-03-27T04:18:51.212Z,49.76
2016-03-27T04:19:51.183Z,49.57
2016-03-27T04:20:51.185Z,50.14
2016-03-27T04:21:51.142Z,49.18
2016-03-27T04:22:51.129Z,49.09
2016-03-27T04:23:51.100Z,48.9
2016-03-27T04:24:51.072Z,48.99
2016-03-27T04:25:51.058Z,49.28
2016-03-27T04:26:51.046Z,48.8
2016-03-27T04:27:51.018Z,48.8
2016-03-27T04:28:50.988Z,48.71
2016-03-27T04:29:50.975Z,49.09
2016-03-27T04:30:50.947Z,48.9
2016-03-27T04:31:50.934Z,48.9
2016-03-27T04:32:50.921Z,49.09
2016-03-27T04:33:50.893Z,48.8
2016-03-27T04:34:50.864Z,48.71
2016-03-27T04:35:50.851Z,48.71
2016-03-27T04:36:50.823Z,48.8
2016-03-27T04:37:50.795Z,48.8
2016-03-27T04:38:50.781Z,48.9
2016-03-27T04:39:50.753Z,48.9
2016-03-27T04:40:50.739Z,48.9
2016-03-27T04:41:50.712Z,48.9
2016-03-27T04:42:50.698Z,48.9
2016-03-27T04:43:50.669Z,48.93
2016-03-27T04:44:50.656Z,48.8
2016-03-27T04:45:50.628Z,48.93
2016-03-27T04:46:50.615Z,48.8
2016-03-27T04:47:50.586Z,48.93
2016-03-27T04:48:50.574Z,49.09
2016-03-27T04:49:50.577Z,49.18
2016-03-27T04:50:50.532Z,48.99
2016-03-27T04:51:50.503Z,49.18
2016-03-27T04:52:50.491Z,48.99
2016-03-27T04:53:50.462Z,48.8
2016-03-27T04:54:50.449Z,48.8
2016-03-27T04:55:50.421Z,48.99
2016-03-27T04:56:50.391Z,48.8
2016-03-27T04:57:50.379Z,49.09
2016-03-27T04:58:50.351Z,48.99
2016-03-27T04:59:50.337Z,49.28
2016-03-27T05:00:50.309Z,49.76
2016-03-27T05:01:50.296Z,49.85
2016-03-27T05:02:50.267Z,49.85
2016-03-27T05:03:50.254Z,49.76
2016-03-27T05:04:50.226Z,49.76
2016-03-27T05:05:50.212Z,49.76
2016-03-27T05:06:50.185Z,49.85
2016-03-27T05:07:50.171Z,49.57
2016-03-27T05:08:50.143Z,50.14
2016-03-27T05:09:50.131Z,50.24
2016-03-27T05:10:50.101Z,50.14
2016-03-27T05:11:50.089Z,50.04
2016-03-27T05:12:50.059Z,49.85
2016-03-27T05:13:50.047Z,49.85
2016-03-27T05:14:50.018Z,50.04
2016-03-27T05:15:50.006Z,50.43
2016-03-27T05:16:49.977Z,50.14
2016-03-27T05:17:49.948Z,50.04
2016-03-27T05:18:49.936Z,50.14
2016-03-27T05:19:49.922Z,50.24
2016-03-27T05:20:49.894Z,50.62
2016-03-27T05:21:49.881Z,50.24
2016-03-27T05:22:49.852Z,50.24
2016-03-27T05:23:49.824Z,50.33
2016-03-27T05:24:49.811Z,50.43
2016-03-27T05:25:49.782Z,50.33
2016-03-27T05:26:49.770Z,50.52
2016-03-27T05:27:49.757Z,50.33
2016-03-27T05:28:49.727Z,50.43
2016-03-27T05:29:49.700Z,50.43
2016-03-27T05:30:49.687Z,50.71
2016-03-27T05:31:49.657Z,50.62
2016-03-27T05:32:49.645Z,50.62
2016-03-27T05:33:49.616Z,50.33
2016-03-27T05:34:49.604Z,50.62
2016-03-27T05:35:49.576Z,50.62
2016-03-27T05:36:49.562Z,50.9
2016-03-27T05:37:49.533Z,50.9
2016-03-27T05:38:49.505Z,51.38
2016-03-27T05:39:49.492Z,51.57
2016-03-27T05:40:49.463Z,52.05
2016-03-27T05:41:49.451Z,53.77
2016-03-27T05:42:49.422Z,55.49
2016-03-27T05:43:49.409Z,57.75
2016-03-27T05:44:49.381Z,59.28
2016-03-27T05:45:49.367Z,60.33
2016-03-27T05:46:49.339Z,61.57
2016-03-27T05:47:49.325Z,62.15
2016-03-27T05:48:49.297Z,63.2
2016-03-27T05:49:49.284Z,63.45
2016-03-27T05:50:49.256Z,63.67
2016-03-27T05:51:49.243Z,64.59
2016-03-27T05:52:49.215Z,65.07
2016-03-27T05:53:49.186Z,64.97
2016-03-27T05:54:49.172Z,65.55
2016-03-27T05:55:49.144Z,66.69
2016-03-27T05:56:49.116Z,66.88
2016-03-27T05:57:49.102Z,66.98
2016-03-27T05:58:49.074Z,67.27
2016-03-27T05:59:49.061Z,67.93
2016-03-27T06:00:49.032Z,68.09
2016-03-27T06:01:49.005Z,68.18
2016-03-27T06:02:48.991Z,68.47
2016-03-27T06:03:48.962Z,69.43
2016-03-27T06:04:48.950Z,68.95
2016-03-27T06:05:48.921Z,69.33
2016-03-27T06:06:48.892Z,69.52
2016-03-27T06:07:48.880Z,70.28
2016-03-27T06:08:48.851Z,70.95
2016-03-27T06:09:48.823Z,71.14
2016-03-27T06:10:48.810Z,71.43
2016-03-27T06:11:48.781Z,72.09
2016-03-27T06:12:48.768Z,73.05
2016-03-27T06:13:48.740Z,73.14
2016-03-27T06:14:48.711Z,73.96
2016-03-27T06:15:48.697Z,74.92
2016-03-27T06:16:48.670Z,75.2
2016-03-27T06:17:48.641Z,75.4
2016-03-27T06:18:48.628Z,75.87
2016-03-27T06:19:48.600Z,76.25
2016-03-27T06:20:48.571Z,76.44
2016-03-27T06:21:48.558Z,76.64
2016-03-27T06:22:48.530Z,77.69
2016-03-27T06:23:48.516Z,77.97
2016-03-27T06:24:48.488Z,78.35
2016-03-27T06:25:48.460Z,78.64
2016-03-27T06:26:48.446Z,79.11
2016-03-27T06:27:48.419Z,79.59
2016-03-27T06:28:48.389Z,79.4
2016-03-27T06:29:48.376Z,79.93
2016-03-27T06:30:48.349Z,80.31
2016-03-27T06:31:48.319Z,80.5
2016-03-27T06:32:48.306Z,80.6
2016-03-27T06:33:48.278Z,81.26
2016-03-27T06:34:48.249Z,81.36
2016-03-27T06:35:48.237Z,82.6
2016-03-27T06:36:48.207Z,82.89
2016-03-27T06:37:48.179Z,83.13
2016-03-27T06:38:48.151Z,83.13
2016-03-27T06:39:48.137Z,84.17
2016-03-27T06:40:48.125Z,83.51
2016-03-27T06:41:48.081Z,84.27
2016-03-27T06:42:48.067Z,84.46
2016-03-27T06:43:48.040Z,85.03
2016-03-27T06:44:48.011Z,85.32
2016-03-27T06:45:47.998Z,85.32
2016-03-27T06:46:47.969Z,85.41
2016-03-27T06:47:47.940Z,85.99
2016-03-27T06:48:47.928Z,86.08
2016-03-27T06:49:47.900Z,86.65
2016-03-27T06:50:47.870Z,86.46
2016-03-27T06:51:47.842Z,87.23
2016-03-27T06:52:47.828Z,87.03
2016-03-27T06:53:47.800Z,87.23
2016-03-27T06:54:47.771Z,87.75
2016-03-27T06:55:47.759Z,87.41
2016-03-27T06:56:47.730Z,87.89
2016-03-27T06:57:47.701Z,88.46
2016-03-27T06:58:47.674Z,88.32
2016-03-27T06:59:47.660Z,88.42
2016-03-27T07:00:47.632Z,88.75
2016-03-27T07:01:47.603Z,88.75
2016-03-27T07:02:47.590Z,88.7
2016-03-27T07:03:47.562Z,89.22
2016-03-27T07:04:47.533Z,88.89
2016-03-27T07:05:47.520Z,88.7
2016-03-27T07:06:47.491Z,88.79
2016-03-27T07:07:47.463Z,88.79
2016-03-27T07:08:47.435Z,89.08
2016-03-27T07:09:47.421Z,89.7
2016-03-27T07:10:47.392Z,89.32
2016-03-27T07:11:47.365Z,89.7
2016-03-27T07:12:47.336Z,89.56
2016-03-27T07:13:47.322Z,89.75
2016-03-27T07:14:47.295Z,89.65
2016-03-27T07:15:47.281Z,90.22
2016-03-27T07:16:47.253Z,90.13
2016-03-27T07:17:47.240Z,90.32
2016-03-27T07:18:47.195Z,90.32
2016-03-27T07:19:47.183Z,90.46
2016-03-27T07:20:47.154Z,90.22
2016-03-27T07:21:47.125Z,90.61
2016-03-27T07:22:47.097Z,90.22
2016-03-27T07:23:47.084Z,90.36
2016-03-27T07:24:47.056Z,90.32
2016-03-27T07:25:47.027Z,90.13
2016-03-27T07:26:46.999Z,90.51
2016-03-27T07:27:46.986Z,90.42
2016-03-27T07:28:46.958Z,90.42
2016-03-27T07:29:46.943Z,90.8
2016-03-27T07:30:46.916Z,90.51
2016-03-27T07:31:46.887Z,90.22
2016-03-27T07:32:46.874Z,91.17
2016-03-27T07:33:46.846Z,90.7
2016-03-27T07:34:46.816Z,90.89
2016-03-27T07:35:46.788Z,90.8
2016-03-27T07:36:46.760Z,90.7
2016-03-27T07:37:46.746Z,90.7
2016-03-27T07:38:46.718Z,90.8
2016-03-27T07:39:46.690Z,90.61
2016-03-27T07:40:46.676Z,90.8
2016-03-27T07:41:46.649Z,90.89
2016-03-27T07:42:46.620Z,90.89
2016-03-27T07:43:46.606Z,90.51
2016-03-27T07:44:46.579Z,90.7
2016-03-27T07:45:46.550Z,90.89
2016-03-27T07:46:46.520Z,90.7
2016-03-27T07:47:46.508Z,90.8
2016-03-27T07:48:46.479Z,90.22
2016-03-27T07:49:46.451Z,90.51
2016-03-27T07:50:46.422Z,90.89
2016-03-27T07:51:46.409Z,90.8
2016-03-27T07:52:46.381Z,90.7
2016-03-27T07:53:46.352Z,90.89
2016-03-27T07:54:46.339Z,90.61
2016-03-27T07:55:46.327Z,90.89
2016-03-27T07:56:46.282Z,90.8
2016-03-27T07:57:46.270Z,91.17
2016-03-27T07:58:46.241Z,90.89
2016-03-27T07:59:46.212Z,90.99
2016-03-27T08:00:46.184Z,90.99
2016-03-27T08:01:46.171Z,91.17
2016-03-27T08:02:46.141Z,91.08
2016-03-27T08:03:46.113Z,90.89
2016-03-27T08:04:46.101Z,91.08
2016-03-27T08:05:46.071Z,91.46
2016-03-27T08:06:46.044Z,91.65
2016-03-27T08:07:46.015Z,92.03
2016-03-27T08:08:46.001Z,91.75
2016-03-27T08:09:45.974Z,91.56
2016-03-27T08:10:45.945Z,91.94
2016-03-27T08:11:45.915Z,91.75
2016-03-27T08:12:45.904Z,91.56
2016-03-27T08:13:45.875Z,91.99
2016-03-27T08:14:45.846Z,92.03
2016-03-27T08:15:45.818Z,91.94
2016-03-27T08:16:45.804Z,92.22
2016-03-27T08:17:45.776Z,91.99
2016-03-27T08:18:45.748Z,92.75
2016-03-27T08:19:45.734Z,92.18
2016-03-27T08:20:45.706Z,92.18
2016-03-27T08:21:45.678Z,92.27
2016-03-27T08:22:45.650Z,92.08
2016-03-27T08:23:45.636Z,92.18
2016-03-27T08:24:45.608Z,92.94
2016-03-27T08:25:45.578Z,92.75
2016-03-27T08:26:45.566Z,92.75
2016-03-27T08:27:45.538Z,92.56
2016-03-27T08:28:45.508Z,92.65
2016-03-27T08:29:45.480Z,92.75
2016-03-27T08:30:45.467Z,92.65
2016-03-27T08:31:45.439Z,92.94
2016-03-27T08:32:45.426Z,92.84
2016-03-27T08:33:45.382Z,92.65
2016-03-27T08:34:45.369Z,92.75
2016-03-27T08:35:45.340Z,92.84
2016-03-27T08:36:45.312Z,92.65
2016-03-27T08:37:45.299Z,92.18
2016-03-27T08:38:45.270Z,91.99
2016-03-27T08:39:45.242Z,92.08
2016-03-27T08:40:45.229Z,91.89
2016-03-27T08:41:45.200Z,91.7
2016-03-27T08:42:45.171Z,91.99
2016-03-27T08:43:45.143Z,91.99
2016-03-27T08:44:45.129Z,91.89
2016-03-27T08:45:45.132Z,91.99
2016-03-27T08:46:45.073Z,92.08
2016-03-27T08:47:45.044Z,92.75
2016-03-27T08:48:45.032Z,92.84
2016-03-27T08:49:45.003Z,92.75
2016-03-27T08:50:44.974Z,92.94
2016-03-27T08:51:44.946Z,92.56
2016-03-27T08:52:44.933Z,92.75
2016-03-27T08:53:44.903Z,92.94
2016-03-27T08:54:44.876Z,93.32
2016-03-27T08:55:44.847Z,92.84
2016-03-27T08:56:44.834Z,93.23
2016-03-27T08:57:44.806Z,93.41
2016-03-27T08:58:44.777Z,93.51
2016-03-27T08:59:44.764Z,94.46
2016-03-27T09:00:44.735Z,94.27
2016-03-27T09:01:44.707Z,93.98
2016-03-27T09:02:44.678Z,93.98
2016-03-27T09:03:44.665Z,93.6
2016-03-27T09:04:44.638Z,94.18
2016-03-27T09:05:44.608Z,94.27
2016-03-27T09:06:44.596Z,94.18
2016-03-27T09:07:44.564Z,94.56
2016-03-27T09:08:44.536Z,94.6
2016-03-27T09:09:44.524Z,94.6
2016-03-27T09:10:44.494Z,94.6
2016-03-27T09:11:44.466Z,94.32
2016-03-27T09:12:44.438Z,94.6
2016-03-27T09:13:44.425Z,93.94
2016-03-27T09:14:44.396Z,94.22
2016-03-27T09:15:44.368Z,94.03
2016-03-27T09:16:44.339Z,94.13
2016-03-27T09:17:44.326Z,93.74
2016-03-27T09:18:44.298Z,93.94
2016-03-27T09:19:44.285Z,94.32
2016-03-27T09:20:44.303Z,93.46
2016-03-27T09:21:44.228Z,93.55
2016-03-27T09:22:44.215Z,93.94
2016-03-27T09:23:44.182Z,93.74
2016-03-27T09:24:44.141Z,93.74
2016-03-27T09:25:44.116Z,93.65
2016-03-27T09:26:44.075Z,93.65
2016-03-27T09:27:44.035Z,93.65
2016-03-27T09:28:44.014Z,93.79
2016-03-27T09:29:43.981Z,93.74
2016-03-27T09:30:43.948Z,93.51
2016-03-27T09:31:43.930Z,93.98
2016-03-27T09:32:43.898Z,93.79
2016-03-27T09:33:43.882Z,93.13
2016-03-27T09:34:43.851Z,93.6
2016-03-27T09:35:43.821Z,93.79
2016-03-27T09:36:43.807Z,93.6
2016-03-27T09:37:43.777Z,93.22
2016-03-27T09:38:43.748Z,92.74
2016-03-27T09:39:43.734Z,92.84
2016-03-27T09:40:43.705Z,92.98
2016-03-27T09:41:43.692Z,93.32
2016-03-27T09:42:43.662Z,92.89
2016-03-27T09:43:43.649Z,92.69
2016-03-27T09:44:43.620Z,92.79
2016-03-27T09:45:43.607Z,92.22
2016-03-27T09:46:43.578Z,92.41
2016-03-27T09:47:43.565Z,92.13
2016-03-27T09:48:43.536Z,91.94
2016-03-27T09:49:43.539Z,91.94
2016-03-27T09:50:43.495Z,91.84
2016-03-27T09:51:43.482Z,92.13
2016-03-27T09:52:43.453Z,91.55
2016-03-27T09:53:43.440Z,91.6
2016-03-27T09:54:43.411Z,91.03
2016-03-27T09:55:43.399Z,91.13
2016-03-27T09:56:43.370Z,90.74
2016-03-27T09:57:43.356Z,90.84
2016-03-27T09:58:43.329Z,91.03
2016-03-27T09:59:43.316Z,90.45
2016-03-27T10:00:43.286Z,89.98
2016-03-27T10:01:43.275Z,90.08
2016-03-27T10:02:43.245Z,90.36
2016-03-27T10:03:43.233Z,90.55
2016-03-27T10:04:43.205Z,90.74
2016-03-27T10:05:43.191Z,89.22
2016-03-27T10:06:43.163Z,89.22
2016-03-27T10:07:43.150Z,89.69
2016-03-27T10:08:43.121Z,89.89
2016-03-27T10:09:43.108Z,90.26
2016-03-27T10:10:43.080Z,90.26
2016-03-27T10:11:43.066Z,90.26
2016-03-27T10:12:43.054Z,90.17
2016-03-27T10:13:43.025Z,90.17
2016-03-27T10:14:43.012Z,90.5
2016-03-27T10:15:42.984Z,90.22
2016-03-27T10:16:42.971Z,90.22
2016-03-27T10:17:42.942Z,89.93
2016-03-27T10:18:42.929Z,89.74
2016-03-27T10:19:42.901Z,89.54
2016-03-27T10:20:42.887Z,89.64
2016-03-27T10:21:42.860Z,89.45
2016-03-27T10:22:42.846Z,89.79
2016-03-27T10:23:42.817Z,89.22
2016-03-27T10:24:42.805Z,88.78
2016-03-27T10:25:42.776Z,88.74
2016-03-27T10:26:42.763Z,88.74
2016-03-27T10:27:42.735Z,88.45
2016-03-27T10:28:42.722Z,86.93
2016-03-27T10:29:42.693Z,86.45
2016-03-27T10:30:42.680Z,86.93
2016-03-27T10:31:42.652Z,87.5
2016-03-27T10:32:42.638Z,88.26
2016-03-27T10:33:42.611Z,89.4
2016-03-27T10:34:42.597Z,89.4
2016-03-27T10:35:42.568Z,89.26
2016-03-27T10:36:42.556Z,88.98
2016-03-27T10:37:42.543Z,87.83
2016-03-27T10:38:42.514Z,88.5
2016-03-27T10:39:42.502Z,88.5
2016-03-27T10:40:42.472Z,88.4
2016-03-27T10:41:42.460Z,87.45
2016-03-27T10:42:42.432Z,87.74
2016-03-27T10:43:42.418Z,88.5
2016-03-27T10:44:42.390Z,89.36
2016-03-27T10:45:42.393Z,89.07
2016-03-27T10:46:42.364Z,88.5
2016-03-27T10:47:42.336Z,88.4
2016-03-27T10:48:42.323Z,88.4
2016-03-27T10:49:42.293Z,88.59
2016-03-27T10:50:42.281Z,87.54
2016-03-27T10:51:42.252Z,88.45
2016-03-27T10:52:42.239Z,88.26
2016-03-27T10:53:42.226Z,88.45
2016-03-27T10:54:42.198Z,88.45
2016-03-27T10:55:42.185Z,88.16
2016-03-27T10:56:42.172Z,86.92
2016-03-27T10:57:42.143Z,87.68
2016-03-27T10:58:42.131Z,87.87
2016-03-27T10:59:42.117Z,87.59
2016-03-27T11:00:42.089Z,87.4
2016-03-27T11:01:42.061Z,87.4
2016-03-27T11:02:42.047Z,87.15
2016-03-27T11:03:42.035Z,86.92
2016-03-27T11:04:42.037Z,87.92
2016-03-27T11:05:41.993Z,88.11
2016-03-27T11:06:41.981Z,86.49
2016-03-27T11:07:41.952Z,85.82
2016-03-27T11:08:41.938Z,86.2
2016-03-27T11:09:41.925Z,86.49
2016-03-27T11:10:41.897Z,86.2
2016-03-27T11:11:41.885Z,86.3
2016-03-27T11:12:41.871Z,85.91
2016-03-27T11:13:41.858Z,86.01
2016-03-27T11:14:41.830Z,85.82
2016-03-27T11:15:41.816Z,86.05
2016-03-27T11:16:41.788Z,86.2
2016-03-27T11:17:41.776Z,85.44
2016-03-27T11:18:41.762Z,84.52
2016-03-27T11:19:41.750Z,84.43
2016-03-27T11:20:41.721Z,84.14
2016-03-27T11:21:41.707Z,83.81
2016-03-27T11:22:41.680Z,84.62
2016-03-27T11:23:41.667Z,84.52
2016-03-27T11:24:41.653Z,84.62
2016-03-27T11:25:41.625Z,84.91
2016-03-27T11:26:41.612Z,85.19
2016-03-27T11:27:41.599Z,84.62
2016-03-27T11:28:41.570Z,85
2016-03-27T11:29:41.558Z,84.72
2016-03-27T11:30:41.545Z,83.67
2016-03-27T11:31:41.516Z,82.52
2016-03-27T11:32:41.503Z,82.42
2016-03-27T11:33:41.490Z,83.76
2016-03-27T11:34:41.478Z,82.52
2016-03-27T11:35:41.450Z,81.85
2016-03-27T11:36:41.436Z,81.18
2016-03-27T11:37:41.422Z,79.65
2016-03-27T11:38:41.394Z,80.09
2016-03-27T11:39:41.381Z,79.46
2016-03-27T11:40:41.353Z,79.85
2016-03-27T11:41:41.340Z,81.14
2016-03-27T11:42:41.327Z,82.42
2016-03-27T11:43:41.299Z,83
2016-03-27T11:44:41.285Z,82.61
2016-03-27T11:45:41.272Z,81.95
2016-03-27T11:46:41.244Z,83.47
2016-03-27T11:47:41.231Z,84.33
2016-03-27T11:48:41.218Z,84.05
2016-03-27T11:49:41.205Z,81.27
2016-03-27T11:50:41.177Z,80.32
2016-03-27T11:51:41.163Z,81.66
2016-03-27T11:52:41.135Z,83
2016-03-27T11:53:41.123Z,84.52
2016-03-27T11:54:41.109Z,84.14
2016-03-27T11:55:41.112Z,84.62
2016-03-27T11:56:41.068Z,84.33
2016-03-27T11:57:41.055Z,85.86
2016-03-27T11:58:41.026Z,84.47
2016-03-27T11:59:41.014Z,84.56
2016-03-27T12:00:41.001Z,84.19
2016-03-27T12:01:40.987Z,84.62
2016-03-27T12:02:40.958Z,84.85
2016-03-27T12:03:40.978Z,86
2016-03-27T12:04:40.917Z,86.57
2016-03-27T12:05:40.905Z,85.42
2016-03-27T12:06:40.876Z,82.37
2016-03-27T12:07:40.863Z,82.08
2016-03-27T12:08:40.850Z,82.46
2016-03-27T12:09:40.837Z,80.46
2016-03-27T12:10:40.809Z,82.94
2016-03-27T12:11:40.796Z,82.37
2016-03-27T12:12:40.783Z,80.93
2016-03-27T12:13:40.754Z,81.89
2016-03-27T12:14:40.741Z,81.51
2016-03-27T12:15:40.727Z,78.74
2016-03-27T12:16:40.700Z,79.69
2016-03-27T12:17:40.687Z,79.22
2016-03-27T12:18:40.674Z,80.74
2016-03-27T12:19:40.645Z,81.79
2016-03-27T12:20:40.633Z,80.55
2016-03-27T12:21:40.604Z,81.79
2016-03-27T12:22:40.590Z,83.42
2016-03-27T12:23:40.579Z,82.84
2016-03-27T12:24:40.549Z,83.9
2016-03-27T12:25:40.536Z,81.32
2016-03-27T12:26:40.507Z,80.65
2016-03-27T12:27:40.495Z,80.84
2016-03-27T12:28:40.482Z,80.27
2016-03-27T12:29:40.453Z,80.27
2016-03-27T12:30:40.440Z,80.46
2016-03-27T12:31:40.428Z,77.87
2016-03-27T12:32:40.398Z,80.07
2016-03-27T12:33:40.401Z,80.27
2016-03-27T12:34:40.358Z,80.36
2016-03-27T12:35:40.345Z,79.79
2016-03-27T12:36:40.331Z,79.6
2016-03-27T12:37:40.319Z,79.79
2016-03-27T12:38:40.290Z,80.17
2016-03-27T12:39:40.277Z,79.79
2016-03-27T12:40:40.249Z,79.5
2016-03-27T12:41:40.235Z,80.84
2016-03-27T12:42:40.208Z,79.69
2016-03-27T12:43:40.194Z,80.27
2016-03-27T12:44:40.180Z,80.36
2016-03-27T12:45:40.152Z,80.55
2016-03-27T12:46:40.140Z,79.22
2016-03-27T12:47:40.127Z,77.78
2016-03-27T12:48:40.098Z,79.08
2016-03-27T12:49:40.086Z,80.84
2016-03-27T12:50:40.057Z,80.07
2016-03-27T12:51:40.043Z,76.73
2016-03-27T12:52:40.032Z,79.31
2016-03-27T12:53:40.002Z,80.74
2016-03-27T12:54:39.990Z,82.28
2016-03-27T12:55:39.976Z,82.84